空港情報

日本の空港の気象及び、管制情報です。
気象情報はより詳細な情報が取得できる「AVIATION WEATER CENTER」 から取得しているため、VATSIMの気象情報と若干のタイムラグが生じることがあります。

VRCのフィールド設定用空港一覧はこちらをご覧ください。

RJCG Sapporo Control

RJCW / Wakkanai

NO RADAR

RADIO

08/26 2200x45

民間 civil

過去5時間に発表されたMETARがありません。

RJER / Rishiri

NO RADAR

REMOTE

25/07 1800x45

民間 civil

過去5時間に発表されたMETARがありません。

RJEB / Monbetsu

NO RADAR

REMOTE

32/14 2000x45

民間 civil

過去5時間に発表されたMETARがありません。

RJCM / Memanbetsu

NO RADAR

TOWER

36/18 2500x45

民間 civil

過去5時間に発表されたMETARがありません。

RJEC / Asahikawa
VMC

NO RADAR

TOWER

34/16 2500x60

民間 civil

9999

180@9KT

30.06

RJEC 202140Z 18009KT 9999 FEW003 SCT/// 20/16 Q1018 RMK 1ST003 A3007

RJCN / Nakashibetsu

NO RADAR

RADIO

08/26 2000x45

民間 civil

過去5時間に発表されたMETARがありません。

RJCK / Kushiro
IMC

NO RADAR

TOWER

17/35 2500x45

民間 civil

1200

050@4KT

30.12

RJCK 202145Z 05004KT 020V090 1200 R35/P2000N -DZ BR BKN001 BKN002 16/16 Q1020 RMK 5ST001 7ST002 A3013

RJCO / Sapporo
VMC

RJCO_APP

TOWER

14/32 1500x30

共用 dual

9999

130@8KT

30.03

RJCO 202100Z 13008KT 9999 FEW010 20/17 Q1017

RJCJ / Chitose

RJCC_APP

TOWER

36R/18L 3000x60
36L/18R 2700x45

自衛隊 military

過去5時間に発表されたMETARがありません。

RJCC / NewChitose
IMC

RJCC_APP

TOWER

01L/19R 3000x60
01R/19L 3000x60

民間 civil

8000

190@10KT

30.06

RJCC 202142Z 19010KT 8000 -DZ FEW002 BKN005 BKN008 18/18 Q1018 RMK 1ST002 5ST005 6ST008 A3008

RJCB / Obihiro

NO RADAR

TOWER

35/17 2500x45

民間 civil

過去5時間に発表されたMETARがありません。

RJEO / Okushiri

NO RADAR

REMOTE

12/30 1500x45

民間 civil

過去5時間に発表されたMETARがありません。

RJCH / Hakodate
IMC

RJCH_APP

TOWER

12/30 3000x45

民間 civil

9999

100@10KT

30.06

RJCH 202150Z 10010KT 9999 -DZ FEW003 SCT004 BKN005 18/17 Q1018 RMK 1ST003 4ST004 5ST005 A3007

RJSA / Aomori
IMC

NO RADAR

TOWER

24/06 3000x60

民間 civil

2000

020@4KT

30.03

RJSA 202140Z 02004KT 350V050 2000 R24/1000VP1800D BCFG BR BKN001 BKN002 17/17 Q1017 RMK 5ST001 7ST002 A3004

RJSO / Ominato
IMC

RJSM_APP

TOWER

04/22 600x45

自衛隊 military

5000

030@5KT

30.06

RJSO 202129Z 03005KT 5000 -DZ BR FEW003 BKN006 BKN010 17/17 Q1018 RMK 2ST003 5ST006 7ST010 A3007

RJSM / Misawa
IMC

RJSM_APP

TOWER

10/28 3050x45

共用 dual

1500

110@8KT

30.06

RJSM 202100Z 11008KT 1500 R10/P1800N -DZ BR SCT000 OVC002 17/17 Q1018

RJSH / Hachinohe
IMC

RJSM_APP

TOWER

25/07 2250x45

自衛隊 military

4900

090@9KT

30.06

RJSH 202139Z 09009KT 4900 -DZ BR FEW002 BKN003 OVC005 18/17 Q1018 RMK 1ST002 5ST003 8ST005 A3007

RJSK / Akita
VMC

NO RADAR

TOWER

10/28 2500x60

民間 civil

9999

140@6KT

29.94

RJSK 202140Z 14006KT CAVOK 21/20 Q1014 RMK A2997

RJSI / Hanamaki

NO RADAR

RADIO

20/02 2500x45

民間 civil

過去5時間に発表されたMETARがありません。

RJSR / Odate-Noshiro

NO RADAR

REMOTE

11/29 2000x45

民間 civil

過去5時間に発表されたMETARがありません。

RJTG Tokyo Control

RJSY / Shonai

NO RADAR

RADIO

09/27 2000x45

民間 civil

過去5時間に発表されたMETARがありません。

RJSC / Yamagata

NO RADAR

RADIO

01/19 2000x45

民間 civil

過去5時間に発表されたMETARがありません。

RJST / Matsushima

RJSS_APP

TOWER

07/25 2071x46
15/33 1500x46

自衛隊 military

過去5時間に発表されたMETARがありません。

RJSS / Sendai
IMC

RJSS_APP

TOWER

27/09 3000x45
12/30 1200x45

民間 civil

9000

070@4KT

30.00

RJSS 202100Z 07004KT 9000 -SHRA FEW003 BKN005 BKN006 20/19 Q1016

RJSD / Sado
VMC

NO RADAR

REMOTE

10/28 890x25

民間 civil

9999

070@3KT

29.91

RJSD 202100Z AUTO 07003KT 9999 NSC 24/23 Q1013

RJSN / Niigata
VMC

RJSN_APP

TOWER

10/28 2500x45
04/22 1314x45

民間 civil

9999

090@3KT

29.91

RJSN 202110Z 09003KT 050V110 9999 FEW030 SCT120 BKN/// 25/23 Q1013 RMK 1CU030 3AC120 A2991

RJSF / Fukushima
IMC

NO RADAR

RADIO

01/19 2500x60

民間 civil

0300

350@5KT

30.03

RJSF 202140Z 35005KT 0300 R01/1800D -SHRA FG FEW001 SCT002 BKN003 21/21 Q1017 RMK 2ST001 4ST002 7ST003 A3004

RJAH / Ibaraki/Hyakuri
IMC

RJAH_APP

TOWER

03L/21R 2700x45
03R/21L 2700x45

共用 dual

5000

070@6KT

29.97

RJAH 202108Z 07006KT 030V090 5000 BR FEW003 BKN004 OVC008 23/22 Q1015 RMK 2ST003 5ST004 8ST008 A2998 VIS NW-N 3000M

RJTT / Tokyo
VMC

RJTT_APP

TOWER

34LR/16RL 3000x60
04/22&05/23 2500x60

民間 civil

7000

090@4KT

29.97

RJTT 202130Z 09004KT 7000 FEW009 SCT020 BKN/// 25/24 Q1015 NOSIG RMK 1ST009 4CU020 A2997

RJAA / Narita
IMC

RJTT_APP

TOWER

34L/16R 4000x60
34R/16L 2500x60

民間 civil

3200

060@6KT

29.97

RJAA 202142Z 06006KT 3200 BR FEW002 BKN004 BKN007 23/23 Q1015 RMK 1ST002 5ST004 7ST007 A2998

RJTL / Shimofusa
IMC

RJTT_APP

TOWER

19/01 2250x45

自衛隊 military

3100

080@5KT

29.94

RJTL 202144Z 08005KT 3100 R19/0650D BR BKN008 BKN100 24/23 Q1014 RMK 5ST008 7AC100 A2997

RJTE / Tateyama

RJTT_APP

TOWER

09/27 300x45

自衛隊 military

過去5時間に発表されたMETARがありません。

RJTO / Oshima

NO RADAR

RADIO

03/21 1800x45

民間 civil

過去5時間に発表されたMETARがありません。

RJTK / Kisarazu
VMC

NO RADAR

TOWER

02/20 1830x45

自衛隊 military

9999

060@2KT

29.97

RJTK 202128Z 06002KT 9999 FEW010 BKN015 BKN170 24/23 Q1015 RMK 1CU010 5CU015 6AC170 A2998

RJAN / Niijima

NO RADAR

REMOTE

11/29 800x25

自衛隊 military

過去5時間に発表されたMETARがありません。

RJAZ / Kozushima

NO RADAR

REMOTE

11/29 800x25

民間 civil

過去5時間に発表されたMETARがありません。

RJTH / Hachijojima

NO RADAR

RADIO

26/08 2000x45

民間 civil

過去5時間に発表されたMETARがありません。

RJTF / Chofu

NO RADAR

Flight Service

35/17 800x30

民間 civil

過去5時間に発表されたMETARがありません。

RJTQ / Miyake

NO RADAR

REMOTE

02/20 1200x30

民間 civil

過去5時間に発表されたMETARがありません。

RJTC / Tachikawa

NO RADAR

TOWER

01/19 900x45

自衛隊 military

過去5時間に発表されたMETARがありません。

RJTA / Atsugi

NO RADAR

TOWER

01/19 2438x45

自衛隊 military

過去5時間に発表されたMETARがありません。

RJTU / Utsunomiya

RJTY_APP

TOWER

01/19 1700x45

自衛隊 military

過去5時間に発表されたMETARがありません。

RJTJ / Iruma

RJTY_APP

TOWER

17/35 2000x45

自衛隊 military

過去5時間に発表されたMETARがありません。

RJTY / Yokota
IMC

RJTY_APP

TOWER

18/36 3353x60

自衛隊 military

0800

000@0KT

30.02

RJTY 202116Z COR 00000KT 1/2SM FG OVC003 24/24 A3002 RMK AO2A CIG 002 RWY18 SLP162 FZRANO $ COR 2146

RJAF / Matsumoto

NO RADAR

RADIO

18/36 2000x45

民間 civil

過去5時間に発表されたMETARがありません。

RJNS / Shizuoka

NO RADAR

RADIO

30/12 2500x60

民間 civil

過去5時間に発表されたMETARがありません。

RJNY / Yaizu-Shizuhama
VMC

NO RADAR

TOWER

27/09 1500x45

自衛隊 military

9999

000@1KT

29.97

RJNY 201730Z VRB01KT 9999 FEW015 SCT020 BKN/// 25/24 Q1015 RMK 1CU015 3CU020 A2998

RJNH / Hamamatsu

RJNH_APP

TOWER

09/27 2550x60

自衛隊 military

過去5時間に発表されたMETARがありません。

RJGG / Chubu
VMC

RJGG_APP

TOWER

36/18 3500x60

民間 civil

9000

120@7KT

29.94

RJGG 202130Z 12007KT 9000 VCSH FEW010 SCT015 BKN045 26/25 Q1014 TEMPO 4000 BR

RJNA / Nagoya

RJGG_APP

TOWER

34/16 2740x45

民間 civil

過去5時間に発表されたMETARがありません。

RJNG / Gifu
VMC

RJGG_APP

TOWER

28/10 2710x46

自衛隊 military

9999

000@2KT

29.94

RJNG 202028Z VRB02KT 9999 BKN030 BKN220 25/24 Q1014 RMK 5CU030 A2995

RJOE / Akeno

RJOE_APP

TOWER

13/31 500x30
04/22 500x30

自衛隊 military

過去5時間に発表されたMETARがありません。

RJNK / Komatsu
VMC

RJNK_APP

TOWER

06/24 2700x45

共用 dual

9999

190@3KT

29.85

RJNK 202100Z 19003KT 120V240 9999 FEW030 BKN180 BKN230 24/21 Q1011

RJNW / Noto

NO RADAR

RADIO

25/07 2000x45

民間 civil

過去5時間に発表されたMETARがありません。

RJNT / Toyama
VMC

NO RADAR

TOWER

20/02 2000x45

民間 civil

9999

150@3KT

29.85

RJNT 202110Z 15003KT 090V210 9999 FEW030 BKN180 BKN/// 27/21 Q1011 RMK 1CU030 6AC180 A2988

RJNF / Fukui

NO RADAR

REMOTE

18/36 1200x30

民間 civil

過去5時間に発表されたMETARがありません。

RJBD / Nanki-Shirahama

NO RADAR

RADIO

15/33 2000x45

民間 civil

過去5時間に発表されたMETARがありません。

RJOY / Yao

RJBB_APP

TOWER

27/09 1490x45
13/31 1200x30

民間 civil

過去5時間に発表されたMETARがありません。

RJOO / Osaka
VMC

RJBB_APP

TOWER

32L/14R 3000x60
32R/14L 1830x45

民間 civil

9999

080@3KT

29.88

RJOO 202100Z 08003KT 9999 FEW020 BKN/// 26/23 Q1012 RMK 1CU020 A2991

RJOB / Okayama
VMC

RJBB_APP

TOWER

07/25 3000x45

民間 civil

7000

090@6KT

29.85

RJOB 202115Z 09006KT 7000 -SHRA FEW005 BKN045 BKN100 24/24 Q1011 RMK 1ST005 5CU045 6AC100 A2988

RJBB / Kansai
VMC

RJBB_APP

TOWER

06R/24L 3500x60
06L/24R 4000x60

民間 civil

9999

150@6KT

29.91

RJBB 202130Z 15006KT 9999 FEW015 SCT030 BKN060 27/22 Q1013 NOSIG

RJBE / Kobe

RJBB_APP

TOWER

09/27 2500x60

民間 civil

過去5時間に発表されたMETARがありません。

RJBT / Tajima

NO RADAR

REMOTE

01/19 1200x30

民間 civil

過去5時間に発表されたMETARがありません。

RJOR / Tottori
VMC

NO RADAR

RADIO

10/28 2000x45

民間 civil

9999

160@13G23KT

29.79

RJOR 202130Z 16013G23KT 120V190 9999 -SHRA FEW025 SCT045 BKN100 28/23 Q1009

RJNO / Oki

NO RADAR

REMOTE

07/25 2000x45

民間 civil

過去5時間に発表されたMETARがありません。

RJOH / Miho
VMC

RJOH_APP

TOWER

25/07 2500x45

共用 dual

9999

190@6KT

29.76

RJOH 202100Z 19006KT 9999 -RA FEW030 SCT050 BKN120 26/22 Q1008

RJOC / Izumo
VMC

RJOH_APP

RADIO

07/25 2000x45

共用 dual

9999

150@4KT

29.73

RJOC 202130Z 15004KT 9999 -SHRA FEW015 SCT045 BKN070 26/23 Q1007

RJDG Fukuoka Control

RJOT / Takamatsu
VMC

RJBB_APP

TOWER

26/08 2500x60

民間 civil

9999

150@5KT

29.85

RJOT 202120Z 15005KT 9999 FEW010 SCT180 BKN/// 23/22 Q1011 RMK 1ST010 3AC180 A2987

RJOK / Kochi
VMC

RJBB_APP

TOWER

32/14 2500x45

民間 civil

9999

110@12KT

29.88

RJOK 202125Z 11012KT 9999 VCSH FEW003 SCT020 FEW025CB BKN040 26/25 Q1012 RMK 1ST003 3CU020 1CB025 5CU040 A2988 CB 25KM NW MOV NE

RJOS / Tokushima
VMC

RJOS_APP

TOWER

29/11 2500x45

共用 dual

8000

180@18KT

29.88

RJOS 202138Z 18018KT 8000 -SHRA FEW004 BKN015 BKN030 25/24 Q1012 RMK 2ST004 6CU015 7CU030 A2988

RJOA / Hiroshima
VMC

RJOA_APP

TOWER

10/28 3000x60

民間 civil

9999

160@3KT

29.85

RJOA 202110Z 16003KT 100V230 9999 BCFG FEW000 SCT010 BKN030 23/21 Q1011 RMK 1ST000 3CU010 5CU030 A2987 FG BANK SE AND S-W

RJBH / Hiroshimanishi

NO RADAR

Flight Service

04/22 1800x45

民間 civil

過去5時間に発表されたMETARがありません。

RJOI / Iwakuni
VMC

RJOI_APP

TOWER

02/20 2440x60

共用 dual

9999

170@8KT

29.80

RJOI 202055Z 17008KT 9999 -SHRA FEW010 BKN027 OVC070 26/23 A2980 RMK CIG 027V032 CB DSNT W-NW SLP091 P0004 60006 T02560233 55000

RJOM / Matsuyama
VMC

RJOI_APP

TOWER

14/32 2500x45

民間 civil

9999

150@4KT

29.76

RJOM 202110Z 15004KT 110V190 9999 FEW025 SCT070 BKN150 27/24 Q1008 RMK 1CU025 4AC070 6AC150 A2979

RJOZ / Ozuki
VMC

RJFZ_APP

TOWER

35/17 1201x61
12/30 899x46

自衛隊 military

4900

120@12KT

29.73

RJOZ 202133Z 12012KT 4900 SHRA BR FEW005 BKN012 BKN025 25/25 Q1007 RMK 2ST005 6CU012 7CU025 A2976

RJOF / Hofu
IMC

RJFZ_APP

TOWER

30/12 1180x60
01/19 1480x45

自衛隊 military

7000

090@8KT

29.79

RJOF 202117Z 09008KT 7000 SHRA FEW002 SCT005 BKN008 SCT015CB 24/23 Q1009 RMK 1ST002 4ST005 6ST008 3CB015 A2980 CB NE-SE MOV NE

RJDC / Yamaguchi-Ube
IMC

RJFZ_APP

RADIO

07/25 2500x45

民間 civil

3000

110@7KT

29.79

RJDC 202130Z 11007KT 3000 TSRA BR FEW004 SCT015 FEW025CB BKN035 24/24 Q1009

RJFR / Kitakyushu
IMC

RJFZ_APP

TOWER

18/36 2500x60

民間 civil

4500

140@10KT

29.76

RJFR 202116Z 14010KT 4500 R18/1400VP1800D SHRA FEW006 BKN012 BKN030 25/25 Q1008 RMK 1ST006 6CU012 7CU030 A2977

RJFZ / Tsuiki

RJFZ_APP

TOWER

25/07 2399x46

自衛隊 military

過去5時間に発表されたMETARがありません。

RJOW / Iwami

NO RADAR

REMOTE

11/29 2000x45

民間 civil

過去5時間に発表されたMETARがありません。

RJDT / Tsushima

NO RADAR

REMOTE

32/14 1900x45

民間 civil

過去5時間に発表されたMETARがありません。

RJFF / Fukuoka
VMC

RJFF_APP

TOWER

16/34 2800x60

民間 civil

9999

110@5KT

29.73

RJFF 202130Z 11005KT 9999 -SHRA FEW005 SCT040 BKN150 25/24 Q1007 TEMPO 1500 +TSRA BR

RJFS / Saga
IMC

RJFF_APP

RADIO

29/11 2000x45

民間 civil

1000

160@12KT

29.73

RJFS 202144Z 16012KT 1000 R29/0600VP2000D TSRA BR FEW003 SCT005 BKN010 FEW015CB 25/23 Q1007 RMK 1ST003 3ST005 6CU010 2CB015 A2975 FBL TS 15KM W MOV NE

RJFA / Ashiya

RJFF_APP

TOWER

12/30 1640x46

自衛隊 military

過去5時間に発表されたMETARがありません。

RJDB / Iki

RJFF_APP

REMOTE

20/02 1200x30

民間 civil

過去5時間に発表されたMETARがありません。

RJFO / Oita

RJFO_APP

TOWER

01/19 3000x45

民間 civil

過去5時間に発表されたMETARがありません。

RJFU / Nagasaki
IMC

RJFU_APP

TOWER

32/14 3000x60

民間 civil

2500

210@13KT

29.73

RJFU 202125Z 21013KT 2500 R32/0800VP1800U TSRA BR FEW003 SCT010 BKN015 FEW020CB 26/26 Q1007 RMK 1ST003 4CU010 7CU015 1CB020 A2974 FBL TS 15KM SW-W MOV NE

RJDU / Omura

RJFU_APP

TOWER

18/36 1200x30

自衛隊 military

過去5時間に発表されたMETARがありません。

RJFE / Fukue

NO RADAR

RADIO

03/21 2000x45

民間 civil

過去5時間に発表されたMETARがありません。

RJDO / Ojika

NO RADAR

REMOTE

03/21 800x30

民間 civil

過去5時間に発表されたMETARがありません。

RJDK / Kamigoto
IMC

NO RADAR

REMOTE

17/35 800x30

民間 civil

2100

190@5KT

29.70

RJDK 202100Z AUTO 19005KT 150V240 2100 BR BKN000 //////CB 24/24 Q1006

RJDA / Amakusa

NO RADAR

Flight Service

31/13 1000x30

民間 civil

過去5時間に発表されたMETARがありません。

RJFT / Kumamoto
VMC

RJFT_APP

TOWER

07/25 3000x45

民間 civil

9999

120@3KT

29.79

RJFT 202110Z 12003KT 9999 FEW002 SCT035 BKN060 25/24 Q1009 RMK 1ST002 3CU035 6SC060 A2980

RJFN / Nyutabaru

RJFM_APP

TOWER

28/10 2701x46

自衛隊 military

過去5時間に発表されたMETARがありません。

RJFM / Miyazaki
IMC

RJFM_APP

TOWER

27/09 2500x45

民間 civil

4000

080@3KT

29.82

RJFM 202110Z 08003KT 040V100 4000 SHRA BR FEW005 SCT015 BKN025 24/24 Q1010 RMK 1ST005 3CU015 5CU025 A2982

RJFK / Kagoshima
IMC

RJFK_APP

TOWER

34/16 3000x45

民間 civil

0700

190@12KT

29.85

RJFK 202150Z 19012KT 0700 R34/0300V0450N +SHRA FEW003 BKN007 BKN012 SCT020CB 24/24 Q1011 RMK 2ST003 5ST007 7CU012 3CB020 A2986 RI++ CB OHD MOV NE

RJFY / Kanoya
VMC

RJFY_APP

TOWER

26L/08R 2250x45
26R/08L 1200x40

自衛隊 military

5000

250@10G20KT

29.82

RJFY 201727Z 25010G20KT 5000 -SHRA BR SCT003 SCT010 OVC020 FEW020CB 25/24 Q1010 RMK 3ST003 4CU010 8CU020 1CB020 A2983 CB 10KM NE MOV NE

RJFG / Tanegashima

NO RADAR

RADIO

31/13 2000x45

民間 civil

過去5時間に発表されたMETARがありません。

RJFC / Yakushima

NO RADAR

REMOTE

14/32 1500x45

民間 civil

過去5時間に発表されたMETARがありません。

RJBG Kobe Control

ROAH / Naha
VMC

ROAH_APP

TOWER

36/18 3000x45

共用 dual

9999

180@7KT

29.79

ROAH 202130Z 18007KT 9999 FEW010 SCT200 BKN/// 28/26 Q1009

RORA / Aguni

ROAH_APP

REMOTE

01/19 800x25

民間 civil

過去5時間に発表されたMETARがありません。

ROKJ / Kumejima

ROAH_APP

REMOTE

03/21 2000x45

民間 civil

過去5時間に発表されたMETARがありません。

RODN / Kadena
VMC

ROAH_APP

TOWER

05L/23R 3688x91
05R/23L 3688x61

自衛隊 military

9999

000@0KT

29.81

RODN 202056Z AUTO 00000KT 10SM FEW012 FEW026 SCT032 27/26 A2981 RMK AO2 SLP099 T02730255 55000 $

ROTM / Futenma
VMC

ROAH_APP

TOWER

06/24 2740x45

自衛隊 military

9999

170@6KT

29.83

ROTM 202056Z 17006KT 9999 SCT015 BKN040 BKN065 27/26 A2983 RMK SLP085 T02670261 53000

RORS / Shimojishima

RORS_APP

TOWER

17/35 3000x60

民間 civil

過去5時間に発表されたMETARがありません。

ROMY / Miyako
VMC

RORS_APP

TOWER

04/22 2000x45

民間 civil

9999

190@10KT

29.76

ROMY 202130Z 19010KT 9999 SCT012 BKN120 28/26 Q1008

ROIG / New Ishigaki
VMC

RORS_APP

TOWER

22/04 2000x45

民間 civil

9999

200@10KT

29.73

ROIG 202100Z 20010KT 9999 FEW012 BKN170 28/27 Q1007

RORT / Tarama

RORS_APP

REMOTE

36/18 1500x45

民間 civil

過去5時間に発表されたMETARがありません。

RJKA / Amami
VMC

NO RADAR

RADIO

03/21 2000x45

民間 civil

9999

180@9KT

29.82

RJKA 202130Z 18009KT 9999 FEW006 SCT180 BKN/// 27/27 Q1010

RJKI / Kikai
VMC

NO RADAR

REMOTE

07/25 1200x30

民間 civil

9999

180@6KT

29.82

RJKI 202123Z AUTO 18006KT 140V220 9999 SCT008 BKN010 28/27 Q1010 RMK A2985

RJKN / Tokunoshima

NO RADAR

REMOTE

19/01 2000x45

民間 civil

過去5時間に発表されたMETARがありません。

RJKB / Okierabu

NO RADAR

REMOTE

04/22 1350x45

民間 civil

過去5時間に発表されたMETARがありません。

RORY / Yoron
VMC

NO RADAR

REMOTE

32/14 1320x30

民間 civil

9999

190@9KT

29.79

RORY 202100Z AUTO 19009KT 9999 NCD 27/26 Q1009

RORK / Kitadaito
VMC

NO RADAR

REMOTE

03/21 1500x45

民間 civil

9999

150@10KT

29.85

RORK 202100Z AUTO 15010KT 9999 SCT010 SCT019 28/26 Q1011

ROMD / Minami-daito
VMC

NO RADAR

REMOTE

02/20 1500x45

民間 civil

9999

170@5KT

29.85

ROMD 202100Z AUTO 17005KT 130V210 9999 SCT010 SCT011 BKN015 28/26 Q1011

ROYN / Yonaguni
VMC

NO RADAR

REMOTE

26/08 2000x45

民間 civil

9999

170@13KT

29.70

ROYN 202100Z AUTO 17013KT 140V200 9999 BKN014 BKN029 //////CB 28/27 Q1006

RORH / Hateruma

NO RADAR

REMOTE

02/20 800x25

民間 civil

過去5時間に発表されたMETARがありません。

ROKR / Kerama

NO RADAR

REMOTE

02/20 800x25

民間 civil

過去5時間に発表されたMETARがありません。